createdAt,value
2022-10-02T00:02:39.797Z,0.70
2022-10-02T00:05:12.723Z,0.73
2022-10-02T00:10:31.595Z,0.55
2022-10-02T00:13:04.017Z,0.80
2022-10-02T00:15:35.405Z,0.43
2022-10-02T00:18:09.659Z,0.98
2022-10-02T00:21:04.141Z,0.65
2022-10-02T00:23:53.200Z,0.52
2022-10-02T00:26:33.372Z,0.80
2022-10-02T00:29:55.195Z,0.80
2022-10-02T00:32:51.104Z,0.50
2022-10-02T00:35:30.961Z,1.15
2022-10-02T00:38:16.143Z,0.98
2022-10-02T00:41:16.291Z,1.13
2022-10-02T00:44:02.927Z,1.02
2022-10-02T00:46:32.990Z,1.20
2022-10-02T00:49:18.046Z,0.60
2022-10-02T00:52:12.054Z,0.80
2022-10-02T00:55:02.927Z,1.10
2022-10-02T00:57:35.448Z,0.82
2022-10-02T01:00:11.270Z,1.73
2022-10-02T01:03:02.289Z,1.15
2022-10-02T01:05:32.238Z,1.40
2022-10-02T01:08:02.311Z,1.02
2022-10-02T01:10:32.270Z,0.98
2022-10-02T01:13:02.204Z,1.27
2022-10-02T01:15:40.250Z,1.30
2022-10-02T01:18:11.569Z,1.90
2022-10-02T01:20:54.825Z,1.40
2022-10-02T01:26:02.869Z,1.10
2022-10-02T01:28:32.846Z,1.10
2022-10-02T01:31:14.850Z,1.45
2022-10-02T01:33:45.177Z,1.13
2022-10-02T01:36:15.249Z,1.35
2022-10-02T01:38:45.238Z,1.70
2022-10-02T01:41:15.403Z,1.25
2022-10-02T01:43:54.011Z,1.30
2022-10-02T01:46:37.615Z,1.65
2022-10-02T01:49:37.684Z,1.55
2022-10-02T01:52:16.711Z,2.17
2022-10-02T01:54:52.877Z,1.70
2022-10-02T01:57:32.485Z,2.25
2022-10-02T02:00:11.144Z,3.40
2022-10-02T02:02:52.427Z,2.80
2022-10-02T02:05:45.669Z,2.95
2022-10-02T02:08:43.776Z,6.38
2022-10-02T02:11:15.662Z,1.98
2022-10-02T02:14:02.844Z,9.40
2022-10-02T02:16:45.393Z,5.68
2022-10-02T02:19:38.497Z,1.77
2022-10-02T02:22:39.656Z,5.82
2022-10-02T02:25:39.593Z,5.05
2022-10-02T02:28:11.681Z,3.80
2022-10-02T02:30:43.259Z,2.00
2022-10-02T02:33:21.904Z,2.67
2022-10-02T02:35:55.881Z,3.40
2022-10-02T02:38:38.230Z,5.13
2022-10-02T02:41:29.219Z,6.57
2022-10-02T02:44:04.509Z,3.03
2022-10-02T02:47:04.384Z,6.70
2022-10-02T02:49:59.998Z,5.00
2022-10-02T02:52:31.815Z,5.05
2022-10-02T02:55:09.839Z,6.65
2022-10-02T02:58:00.207Z,5.38
2022-10-02T03:00:30.120Z,4.63
2022-10-02T03:03:00.032Z,6.57
2022-10-02T03:05:30.760Z,3.10
2022-10-02T03:08:03.559Z,6.82
2022-10-02T03:10:52.380Z,5.25
2022-10-02T03:13:31.369Z,4.45
2022-10-02T03:16:58.659Z,4.82
2022-10-02T03:19:47.753Z,4.63
2022-10-02T03:22:36.673Z,6.55
2022-10-02T03:25:27.613Z,8.15
2022-10-02T03:28:13.875Z,5.50
2022-10-02T03:30:43.832Z,3.70
2022-10-02T03:33:15.537Z,5.50
2022-10-02T03:35:45.512Z,3.20
2022-10-02T03:38:15.896Z,3.50
2022-10-02T03:40:45.770Z,4.55
2022-10-02T03:43:23.804Z,4.50
2022-10-02T03:45:53.712Z,5.20
2022-10-02T03:48:23.733Z,3.00
2022-10-02T03:50:53.733Z,8.07
2022-10-02T03:53:25.671Z,8.23
2022-10-02T03:55:57.603Z,4.97
2022-10-02T03:58:27.554Z,4.05
2022-10-02T04:01:37.191Z,4.78
2022-10-02T04:04:10.481Z,4.30
2022-10-02T04:06:44.190Z,3.03
2022-10-02T04:09:17.961Z,7.90
2022-10-02T04:11:55.511Z,3.80
2022-10-02T04:14:30.290Z,3.17
2022-10-02T04:17:12.720Z,3.42
2022-10-02T04:19:45.625Z,5.32
2022-10-02T04:25:17.246Z,5.68
2022-10-02T04:27:53.074Z,5.53
2022-10-02T04:30:23.059Z,5.90
2022-10-02T04:32:53.250Z,3.92
2022-10-02T04:35:23.201Z,2.67
2022-10-02T04:38:19.181Z,3.50
2022-10-02T04:41:07.579Z,2.85
2022-10-02T04:43:49.474Z,2.20
2022-10-02T04:46:51.390Z,5.00
2022-10-02T04:49:40.618Z,2.42
2022-10-02T04:52:31.888Z,3.70
2022-10-02T04:55:25.435Z,2.90
2022-10-02T04:58:14.958Z,2.83
2022-10-02T05:00:52.183Z,2.53
2022-10-02T05:03:46.775Z,3.97
2022-10-02T05:06:40.757Z,3.80
2022-10-02T05:09:35.020Z,2.63
2022-10-02T05:12:04.946Z,2.80
2022-10-02T05:15:06.045Z,3.85
2022-10-02T05:18:09.580Z,4.82
2022-10-02T05:23:28.439Z,5.13
2022-10-02T05:26:09.686Z,2.95
2022-10-02T05:28:50.597Z,3.95
2022-10-02T05:31:39.113Z,3.80
2022-10-02T05:34:32.580Z,2.70
2022-10-02T05:37:21.245Z,2.55
2022-10-02T05:40:15.906Z,1.88
2022-10-02T05:43:11.229Z,4.40
2022-10-02T05:46:16.133Z,3.65
2022-10-02T05:49:28.939Z,6.18
2022-10-02T05:52:28.246Z,8.03
2022-10-02T05:55:16.506Z,3.45
2022-10-02T05:57:49.904Z,4.30
2022-10-02T06:00:34.486Z,6.13
2022-10-02T06:03:08.519Z,9.32
2022-10-02T06:05:56.494Z,7.80
2022-10-02T06:08:32.729Z,8.75
2022-10-02T06:11:08.695Z,11.10
2022-10-02T06:13:42.434Z,10.90
2022-10-02T06:16:23.076Z,11.00
2022-10-02T06:18:58.562Z,10.32
2022-10-02T06:21:40.978Z,16.73
2022-10-02T06:24:18.628Z,12.23
2022-10-02T06:26:48.718Z,18.92
2022-10-02T06:29:27.523Z,13.30
2022-10-02T06:32:21.159Z,14.13
2022-10-02T06:34:51.260Z,20.08
2022-10-02T06:37:58.058Z,14.10
2022-10-02T06:40:43.958Z,11.18
2022-10-02T06:43:33.342Z,13.10
2022-10-02T06:46:28.334Z,7.75
2022-10-02T06:49:14.586Z,9.48
2022-10-02T06:51:56.955Z,12.18
2022-10-02T06:54:41.935Z,6.87
2022-10-02T06:57:29.240Z,12.82
2022-10-02T07:00:19.293Z,11.30
2022-10-02T07:03:10.491Z,6.82
2022-10-02T07:05:55.751Z,5.50
2022-10-02T07:08:47.200Z,11.10
2022-10-02T07:11:47.920Z,6.13
2022-10-02T07:14:32.374Z,8.23
2022-10-02T07:17:11.666Z,4.07
2022-10-02T07:19:46.592Z,4.45
2022-10-02T07:22:44.511Z,5.60
2022-10-02T07:25:40.818Z,3.55
2022-10-02T07:28:38.820Z,6.82
2022-10-02T07:31:12.466Z,9.20
2022-10-02T07:34:01.200Z,4.03
2022-10-02T07:37:12.762Z,5.88
2022-10-02T07:40:12.034Z,5.80
2022-10-02T07:42:49.250Z,3.72
2022-10-02T07:45:37.248Z,5.40
2022-10-02T07:48:27.474Z,6.80
2022-10-02T07:51:51.588Z,3.30
2022-10-02T07:54:43.152Z,4.90
2022-10-02T07:57:38.110Z,4.72
2022-10-02T08:00:19.065Z,4.53
2022-10-02T08:03:25.544Z,1.88
2022-10-02T08:05:56.881Z,6.47
2022-10-02T08:08:48.888Z,2.42
2022-10-02T08:11:25.986Z,3.53
2022-10-02T08:14:19.558Z,4.68
2022-10-02T08:16:56.633Z,2.75
2022-10-02T08:19:36.057Z,6.07
2022-10-02T08:22:29.911Z,2.17
2022-10-02T08:25:23.327Z,4.45
2022-10-02T08:28:07.664Z,3.40
2022-10-02T08:30:38.561Z,6.28
2022-10-02T08:33:19.517Z,5.45
2022-10-02T08:36:26.678Z,3.58
2022-10-02T08:39:08.977Z,4.53
2022-10-02T08:41:48.145Z,4.85
2022-10-02T08:44:27.065Z,3.28
2022-10-02T08:47:15.474Z,4.45
2022-10-02T08:50:14.051Z,2.10
2022-10-02T08:53:11.305Z,2.22
2022-10-02T08:56:07.565Z,5.28
2022-10-02T08:58:56.015Z,4.45
2022-10-02T09:01:50.352Z,4.22
2022-10-02T09:04:44.793Z,4.40
2022-10-02T09:07:37.489Z,4.00
2022-10-02T09:10:28.218Z,6.18
2022-10-02T09:13:17.464Z,2.75
2022-10-02T09:16:11.842Z,5.22
2022-10-02T09:18:56.753Z,3.92
2022-10-02T09:21:39.045Z,2.65
2022-10-02T09:24:47.725Z,2.08
2022-10-02T09:27:45.618Z,1.60
2022-10-02T09:31:05.573Z,3.35
2022-10-02T09:34:07.743Z,2.47
2022-10-02T09:37:06.298Z,3.17
2022-10-02T09:39:55.425Z,4.45
2022-10-02T09:42:31.559Z,1.70
2022-10-02T09:45:27.232Z,2.65
2022-10-02T09:48:34.115Z,3.42
2022-10-02T09:51:07.513Z,1.40
2022-10-02T09:54:01.808Z,3.75
2022-10-02T09:56:35.837Z,2.78
2022-10-02T09:59:43.101Z,1.85
2022-10-02T10:02:36.276Z,5.90
2022-10-02T10:05:17.242Z,2.13
2022-10-02T10:07:53.195Z,2.33
2022-10-02T10:10:39.324Z,2.13
2022-10-02T10:13:27.290Z,5.25
2022-10-02T10:16:25.028Z,2.50
2022-10-02T10:19:33.984Z,1.30
2022-10-02T10:22:32.446Z,2.75
2022-10-02T10:25:23.101Z,5.05
2022-10-02T10:28:06.157Z,5.18
2022-10-02T10:30:54.647Z,7.63
2022-10-02T10:33:48.893Z,1.67
2022-10-02T10:36:51.945Z,8.07
2022-10-02T10:39:59.201Z,4.25
2022-10-02T10:43:03.065Z,3.00
2022-10-02T10:45:53.826Z,1.85
2022-10-02T10:48:49.938Z,3.78
2022-10-02T10:51:55.792Z,4.63
2022-10-02T10:55:10.940Z,2.55
2022-10-02T10:58:13.911Z,2.20
2022-10-02T11:01:02.550Z,4.37
2022-10-02T11:03:46.091Z,3.35
2022-10-02T11:06:34.622Z,5.65
2022-10-02T11:09:41.743Z,2.67
2022-10-02T11:12:34.591Z,3.78
2022-10-02T11:15:14.240Z,3.67
2022-10-02T11:18:08.690Z,2.72
2022-10-02T11:20:54.090Z,2.20
2022-10-02T11:24:08.780Z,3.17
2022-10-02T11:27:03.440Z,6.70
2022-10-02T11:29:36.546Z,5.93
2022-10-02T11:32:16.577Z,2.40
2022-10-02T11:35:14.142Z,4.70
2022-10-02T11:38:03.974Z,2.28
2022-10-02T11:40:55.656Z,1.92
2022-10-02T11:43:47.387Z,2.15
2022-10-02T11:46:37.684Z,2.88
2022-10-02T11:49:35.679Z,6.43
2022-10-02T11:52:24.295Z,7.20
2022-10-02T11:55:23.352Z,14.55
2022-10-02T11:58:15.425Z,7.07
2022-10-02T12:01:07.072Z,5.32
2022-10-02T12:03:39.947Z,9.02
2022-10-02T12:06:32.022Z,7.30
2022-10-02T12:09:13.007Z,5.50
2022-10-02T12:11:58.590Z,3.30
2022-10-02T12:15:01.736Z,3.75
2022-10-02T12:17:34.787Z,3.38
2022-10-02T12:23:22.993Z,3.20
2022-10-02T12:26:16.866Z,2.63
2022-10-02T12:29:01.252Z,6.32
2022-10-02T12:32:00.958Z,1.95
2022-10-02T12:34:41.295Z,4.07
2022-10-02T12:37:40.550Z,7.03
2022-10-02T12:40:29.533Z,2.72
2022-10-02T12:43:24.280Z,4.68
2022-10-02T12:46:39.139Z,1.92
2022-10-02T12:49:11.130Z,3.10
2022-10-02T12:52:01.085Z,7.80
2022-10-02T12:54:58.364Z,2.95
2022-10-02T12:57:51.930Z,6.78
2022-10-02T13:00:45.452Z,4.28
2022-10-02T13:03:15.887Z,2.70
2022-10-02T13:05:54.640Z,2.50
2022-10-02T13:08:49.521Z,2.42
2022-10-02T13:11:55.992Z,3.50
2022-10-02T13:15:13.531Z,2.65
2022-10-02T13:18:13.916Z,1.90
2022-10-02T13:20:52.695Z,3.90
2022-10-02T13:23:38.711Z,3.33
2022-10-02T13:26:24.055Z,2.38
2022-10-02T13:29:16.240Z,2.83
2022-10-02T13:31:52.862Z,2.78
2022-10-02T13:34:49.415Z,3.78
2022-10-02T13:37:40.361Z,3.58
2022-10-02T13:40:43.186Z,3.55
2022-10-02T13:43:39.609Z,3.25
2022-10-02T13:46:09.768Z,2.35
2022-10-02T13:49:01.670Z,2.88
2022-10-02T13:51:58.826Z,2.70
2022-10-02T13:54:51.829Z,3.08
2022-10-02T13:57:56.524Z,2.05
2022-10-02T14:00:53.573Z,1.73
2022-10-02T14:03:26.577Z,2.17
2022-10-02T14:08:43.299Z,2.95
2022-10-02T14:11:36.532Z,2.83
2022-10-02T14:14:25.012Z,2.45
2022-10-02T14:16:58.063Z,2.60
2022-10-02T14:19:53.616Z,3.67
2022-10-02T14:22:45.904Z,1.55
2022-10-02T14:25:24.207Z,2.35
2022-10-02T14:27:57.724Z,1.27
2022-10-02T14:30:46.511Z,1.88
2022-10-02T14:33:23.431Z,2.17
2022-10-02T14:36:20.498Z,2.42
2022-10-02T14:38:51.786Z,1.98
2022-10-02T14:41:38.996Z,1.40
2022-10-02T14:44:29.868Z,4.82
2022-10-02T14:47:35.320Z,1.45
2022-10-02T14:50:20.068Z,1.92
2022-10-02T14:52:57.354Z,1.67
2022-10-02T14:55:43.001Z,2.35
2022-10-02T14:58:37.590Z,2.33
2022-10-02T15:01:13.451Z,1.30
2022-10-02T15:04:13.791Z,2.13
2022-10-02T15:07:00.954Z,2.20
2022-10-02T15:09:44.343Z,1.25
2022-10-02T15:12:25.907Z,1.88
2022-10-02T15:15:33.134Z,1.60
2022-10-02T15:18:27.600Z,2.83
2022-10-02T15:21:01.994Z,1.95
2022-10-02T15:23:35.795Z,1.63
2022-10-02T15:26:15.451Z,1.88
2022-10-02T15:29:13.519Z,1.80
2022-10-02T15:31:45.941Z,1.60
2022-10-02T15:34:28.706Z,5.45
2022-10-02T15:37:02.792Z,1.88
2022-10-02T15:39:48.395Z,2.58
2022-10-02T15:42:28.780Z,2.13
2022-10-02T15:45:23.589Z,2.42
2022-10-02T15:48:24.169Z,1.63
2022-10-02T15:50:56.980Z,1.40
2022-10-02T15:53:45.429Z,3.28
2022-10-02T15:56:38.867Z,2.03
2022-10-02T15:59:31.080Z,1.67
2022-10-02T16:02:32.262Z,1.75
2022-10-02T16:05:08.428Z,2.08
2022-10-02T16:07:58.331Z,1.95
2022-10-02T16:10:28.867Z,2.25
2022-10-02T16:13:25.092Z,2.13
2022-10-02T16:16:16.204Z,2.28
2022-10-02T16:19:10.252Z,1.67
2022-10-02T16:22:08.593Z,1.23
2022-10-02T16:24:47.683Z,2.17
2022-10-02T16:27:20.415Z,1.33
2022-10-02T16:30:13.648Z,2.42
2022-10-02T16:33:03.105Z,2.45
2022-10-02T16:35:56.684Z,1.33
2022-10-02T16:41:27.359Z,2.17
2022-10-02T16:44:15.730Z,1.73
2022-10-02T16:47:07.122Z,2.13
2022-10-02T16:49:52.233Z,1.75
2022-10-02T16:52:51.746Z,3.28
2022-10-02T16:55:40.464Z,2.47
2022-10-02T16:58:29.473Z,1.60
2022-10-02T17:01:19.726Z,3.50
2022-10-02T17:04:08.063Z,1.85
2022-10-02T17:07:24.073Z,1.70
2022-10-02T17:10:33.810Z,3.03
2022-10-02T17:13:25.860Z,1.60
2022-10-02T17:16:14.572Z,2.25
2022-10-02T17:19:01.717Z,2.78
2022-10-02T17:22:04.688Z,2.70
2022-10-02T17:24:44.021Z,1.92
2022-10-02T17:27:15.866Z,2.33
2022-10-02T17:29:48.624Z,1.50
2022-10-02T17:32:55.648Z,3.40
2022-10-02T17:35:28.619Z,2.90
2022-10-02T17:38:03.528Z,2.95
2022-10-02T17:40:41.950Z,1.33
2022-10-02T17:43:52.832Z,2.63
2022-10-02T17:46:55.441Z,2.15
2022-10-02T17:49:34.506Z,1.80
2022-10-02T17:52:47.686Z,1.65
2022-10-02T17:55:58.489Z,2.60
2022-10-02T17:59:09.703Z,1.48
2022-10-02T18:02:15.890Z,1.88
2022-10-02T18:05:03.543Z,3.22
2022-10-02T18:07:42.718Z,2.85
2022-10-02T18:10:16.154Z,3.28
2022-10-02T18:12:48.844Z,1.90
2022-10-02T18:15:43.000Z,3.08
2022-10-02T18:18:43.604Z,3.55
2022-10-02T18:21:31.808Z,4.03
2022-10-02T18:24:16.702Z,5.10
2022-10-02T18:26:58.329Z,4.05
2022-10-02T18:29:36.331Z,4.82
2022-10-02T18:32:27.597Z,3.20
2022-10-02T18:35:21.992Z,4.35
2022-10-02T18:37:59.985Z,4.78
2022-10-02T18:40:30.917Z,4.78
2022-10-02T18:43:30.732Z,4.20
2022-10-02T18:46:28.543Z,4.40
2022-10-02T18:49:16.938Z,4.72
2022-10-02T18:52:11.447Z,4.95
2022-10-02T18:54:44.827Z,5.22
2022-10-02T18:57:22.605Z,8.95
2022-10-02T19:00:26.181Z,6.85
2022-10-02T19:03:14.637Z,5.63
2022-10-02T19:05:57.362Z,5.05
2022-10-02T19:08:48.288Z,4.28
2022-10-02T19:11:19.681Z,4.18
2022-10-02T19:13:50.176Z,4.20
2022-10-02T19:16:27.000Z,3.45
2022-10-02T19:19:22.367Z,3.28
2022-10-02T19:21:56.027Z,4.18
2022-10-02T19:24:40.895Z,3.67
2022-10-02T19:27:15.204Z,2.85
2022-10-02T19:29:54.736Z,3.22
2022-10-02T19:32:44.573Z,3.28
2022-10-02T19:35:21.175Z,3.28
2022-10-02T19:37:52.424Z,2.92
2022-10-02T19:40:33.187Z,3.65
2022-10-02T19:43:14.337Z,4.18
2022-10-02T19:45:44.658Z,2.45
2022-10-02T19:48:14.576Z,4.45
2022-10-02T19:50:53.792Z,3.92
2022-10-02T19:53:24.340Z,3.45
2022-10-02T19:55:59.547Z,2.60
2022-10-02T19:58:29.914Z,2.95
2022-10-02T20:01:00.113Z,2.88
2022-10-02T20:03:30.887Z,4.10
2022-10-02T20:06:14.250Z,3.42
2022-10-02T20:11:47.147Z,4.05
2022-10-02T20:14:27.710Z,3.53
2022-10-02T20:17:10.336Z,2.90
2022-10-02T20:20:03.336Z,3.42
2022-10-02T20:22:44.185Z,2.15
2022-10-02T20:25:21.931Z,5.50
2022-10-02T20:28:10.339Z,3.40
2022-10-02T20:30:42.848Z,2.17
2022-10-02T20:33:19.832Z,2.17
2022-10-02T20:36:18.878Z,2.63
2022-10-02T20:39:05.036Z,2.85
2022-10-02T20:41:51.489Z,2.85
2022-10-02T20:44:21.835Z,2.53
2022-10-02T20:47:20.893Z,1.98
2022-10-02T20:50:09.144Z,2.33
2022-10-02T20:53:12.627Z,3.00
2022-10-02T20:56:19.560Z,3.38
2022-10-02T20:59:17.180Z,3.05
2022-10-02T21:01:53.262Z,3.47
2022-10-02T21:04:41.378Z,2.75
2022-10-02T21:07:36.232Z,3.15
2022-10-02T21:10:23.017Z,1.77
2022-10-02T21:13:14.485Z,3.45
2022-10-02T21:15:52.952Z,2.42
2022-10-02T21:19:05.777Z,2.35
2022-10-02T21:21:52.811Z,2.40
2022-10-02T21:24:48.889Z,2.95
2022-10-02T21:27:43.303Z,4.05
2022-10-02T21:30:19.790Z,3.88
2022-10-02T21:33:05.624Z,3.35
2022-10-02T21:35:57.028Z,2.92
2022-10-02T21:39:17.603Z,2.35
2022-10-02T21:42:37.877Z,3.85
2022-10-02T21:45:35.231Z,3.67
2022-10-02T21:48:23.344Z,3.65
2022-10-02T21:51:25.350Z,3.67
2022-10-02T21:54:24.009Z,4.22
2022-10-02T21:57:30.338Z,3.70
2022-10-02T22:00:28.953Z,5.75
2022-10-02T22:03:23.335Z,3.17
2022-10-02T22:06:14.462Z,2.90
2022-10-02T22:08:51.833Z,3.05
2022-10-02T22:11:50.783Z,3.25
2022-10-02T22:14:32.333Z,3.58
2022-10-02T22:17:05.966Z,2.13
2022-10-02T22:19:56.744Z,2.08
2022-10-02T22:22:48.846Z,4.60
2022-10-02T22:25:32.809Z,2.15
2022-10-02T22:28:11.948Z,2.42
2022-10-02T22:30:56.900Z,2.97
2022-10-02T22:33:45.452Z,2.67
2022-10-02T22:36:35.826Z,4.97
2022-10-02T22:39:22.114Z,4.45
2022-10-02T22:42:22.852Z,2.15
2022-10-02T22:45:03.757Z,3.65
2022-10-02T22:47:42.175Z,3.75
2022-10-02T22:50:15.258Z,3.97
2022-10-02T22:55:34.635Z,2.75
2022-10-02T22:58:24.723Z,2.53
2022-10-02T23:01:12.716Z,2.08
2022-10-02T23:04:08.641Z,3.70
2022-10-02T23:07:02.561Z,5.50
2022-10-02T23:09:40.144Z,2.60
2022-10-02T23:12:26.625Z,4.82
2022-10-02T23:15:31.112Z,3.28
2022-10-02T23:18:08.514Z,4.53
2022-10-02T23:20:39.549Z,2.85
2022-10-02T23:23:22.296Z,9.85
2022-10-02T23:25:56.327Z,3.60
2022-10-02T23:28:35.028Z,3.10
2022-10-02T23:31:32.441Z,3.85
2022-10-02T23:34:28.854Z,4.50
2022-10-02T23:37:14.482Z,5.53
2022-10-02T23:40:08.494Z,7.45
2022-10-02T23:42:41.801Z,3.45
2022-10-02T23:45:42.554Z,4.43
2022-10-02T23:48:12.984Z,5.20
2022-10-02T23:51:14.906Z,4.00
2022-10-02T23:53:52.547Z,4.60
2022-10-02T23:56:33.301Z,4.88
2022-10-02T23:59:47.373Z,4.28
